sensor_id;sensor_type;location;lat;lon;timestamp;pressure;altitude;pressure_sealevel;temperature;humidity
67738;BME280;54534;43.612;1.572;2023-04-10T00:00:05;99489.06;;;17.90;42.60
67738;BME280;54534;43.612;1.572;2023-04-10T00:02:31;99492.44;;;17.92;42.84
67738;BME280;54534;43.612;1.572;2023-04-10T00:04:57;99491.59;;;17.92;42.71
67738;BME280;54534;43.612;1.572;2023-04-10T00:07:23;99491.59;;;17.92;42.68
67738;BME280;54534;43.612;1.572;2023-04-10T00:09:48;99490.88;;;17.89;42.67
67738;BME280;54534;43.612;1.572;2023-04-10T00:12:14;99496.91;;;17.92;42.75
67738;BME280;54534;43.612;1.572;2023-04-10T00:14:40;99493.53;;;17.89;42.82
67738;BME280;54534;43.612;1.572;2023-04-10T00:17:06;99488.09;;;17.91;42.75
67738;BME280;54534;43.612;1.572;2023-04-10T00:19:31;99496.91;;;17.92;42.88
67738;BME280;54534;43.612;1.572;2023-04-10T00:21:56;99492.56;;;17.90;42.64
67738;BME280;54534;43.612;1.572;2023-04-10T00:24:22;99495.22;;;17.90;42.88
67738;BME280;54534;43.612;1.572;2023-04-10T00:26:47;99496.91;;;17.92;42.98
67738;BME280;54534;43.612;1.572;2023-04-10T00:29:13;99497.03;;;17.90;42.84
67738;BME280;54534;43.612;1.572;2023-04-10T00:31:38;99491.72;;;17.90;42.85
67738;BME280;54534;43.612;1.572;2023-04-10T00:34:03;99490.88;;;17.89;42.62
67738;BME280;54534;43.612;1.572;2023-04-10T00:36:29;99491.72;;;17.90;42.77
67738;BME280;54534;43.612;1.572;2023-04-10T00:38:55;99494.50;;;17.88;42.80
67738;BME280;54534;43.612;1.572;2023-04-10T00:41:21;99495.31;;;17.89;42.91
67738;BME280;54534;43.612;1.572;2023-04-10T00:43:48;99496.19;;;17.89;42.77
67738;BME280;54534;43.612;1.572;2023-04-10T00:46:14;99490.00;;;17.89;42.93
67738;BME280;54534;43.612;1.572;2023-04-10T00:48:40;99486.41;;;17.90;42.82
67738;BME280;54534;43.612;1.572;2023-04-10T00:51:06;99490.88;;;17.89;42.60
67738;BME280;54534;43.612;1.572;2023-04-10T00:53:31;99490.00;;;17.89;42.74
67738;BME280;54534;43.612;1.572;2023-04-10T00:55:58;99495.31;;;17.89;42.98
67738;BME280;54534;43.612;1.572;2023-04-10T00:58:24;99495.31;;;17.89;42.71
67738;BME280;54534;43.612;1.572;2023-04-10T01:00:51;99500.66;;;17.89;42.63
67738;BME280;54534;43.612;1.572;2023-04-10T01:03:18;99498.00;;;17.89;42.70
67738;BME280;54534;43.612;1.572;2023-04-10T01:05:51;99499.81;;;17.88;42.67
67738;BME280;54534;43.612;1.572;2023-04-10T01:13:34;99487.47;;;17.87;42.65
67738;BME280;54534;43.612;1.572;2023-04-10T01:18:45;99491.84;;;17.88;42.61
67738;BME280;54534;43.612;1.572;2023-04-10T01:21:14;99485.75;;;17.86;42.78
67738;BME280;54534;43.612;1.572;2023-04-10T01:27:03;99492.78;;;17.87;42.95
67738;BME280;54534;43.612;1.572;2023-04-10T01:29:33;99490.25;;;17.86;42.63
67738;BME280;54534;43.612;1.572;2023-04-10T01:32:02;99496.41;;;17.86;42.59
67738;BME280;54534;43.612;1.572;2023-04-10T01:34:38;99488.41;;;17.86;42.80
67738;BME280;54534;43.612;1.572;2023-04-10T01:37:12;99491.06;;;17.86;42.94
67738;BME280;54534;43.612;1.572;2023-04-10T01:39:41;99484.09;;;17.85;42.66
67738;BME280;54534;43.612;1.572;2023-04-10T01:42:10;99486.63;;;17.87;42.69
67738;BME280;54534;43.612;1.572;2023-04-10T01:44:40;99486.75;;;17.85;42.80
67738;BME280;54534;43.612;1.572;2023-04-10T01:47:08;99484.09;;;17.85;42.73
67738;BME280;54534;43.612;1.572;2023-04-10T01:49:34;99486.84;;;17.84;42.76
67738;BME280;54534;43.612;1.572;2023-04-10T01:52:01;99484.16;;;17.84;42.89
67738;BME280;54534;43.612;1.572;2023-04-10T01:54:28;99488.53;;;17.85;42.99
67738;BME280;54534;43.612;1.572;2023-04-10T01:56:57;99486.75;;;17.85;42.69
67738;BME280;54534;43.612;1.572;2023-04-10T01:59:23;99481.50;;;17.84;42.94
67738;BME280;54534;43.612;1.572;2023-04-10T02:01:57;99484.16;;;17.84;42.86
67738;BME280;54534;43.612;1.572;2023-04-10T02:04:23;99485.16;;;17.83;42.51
67738;BME280;54534;43.612;1.572;2023-04-10T02:07:00;99486.84;;;17.84;42.80
67738;BME280;54534;43.612;1.572;2023-04-10T02:09:39;99496.66;;;17.83;42.64
67738;BME280;54534;43.612;1.572;2023-04-10T02:12:15;99499.31;;;17.83;42.97
67738;BME280;54534;43.612;1.572;2023-04-10T02:14:43;99498.31;;;17.84;42.88
67738;BME280;54534;43.612;1.572;2023-04-10T02:17:10;99500.03;;;17.85;42.63
67738;BME280;54534;43.612;1.572;2023-04-10T02:19:38;99496.66;;;17.83;42.61
67738;BME280;54534;43.612;1.572;2023-04-10T02:22:05;99495.78;;;17.83;42.59
67738;BME280;54534;43.612;1.572;2023-04-10T02:24:31;99501.97;;;17.83;42.54
67738;BME280;54534;43.612;1.572;2023-04-10T02:26:57;99494.94;;;17.82;43.08
67738;BME280;54534;43.612;1.572;2023-04-10T02:29:22;99494.94;;;17.82;43.09
67738;BME280;54534;43.612;1.572;2023-04-10T02:31:48;99492.28;;;17.82;42.93
67738;BME280;54534;43.612;1.572;2023-04-10T02:34:14;99500.25;;;17.82;42.75
67738;BME280;54534;43.612;1.572;2023-04-10T02:36:40;99494.94;;;17.82;42.68
67738;BME280;54534;43.612;1.572;2023-04-10T02:39:06;99499.41;;;17.82;42.59
67738;BME280;54534;43.612;1.572;2023-04-10T02:41:34;99496.75;;;17.82;42.84
67738;BME280;54534;43.612;1.572;2023-04-10T02:44:00;99493.22;;;17.81;42.66
67738;BME280;54534;43.612;1.572;2023-04-10T02:46:25;99491.41;;;17.82;42.95
67738;BME280;54534;43.612;1.572;2023-04-10T02:48:51;99497.59;;;17.82;42.58
67738;BME280;54534;43.612;1.572;2023-04-10T02:51:17;99495.06;;;17.81;42.68
67738;BME280;54534;43.612;1.572;2023-04-10T02:53:42;99493.22;;;17.81;42.95
67738;BME280;54534;43.612;1.572;2023-04-10T02:56:08;99495.88;;;17.81;42.76
67738;BME280;54534;43.612;1.572;2023-04-10T02:58:36;99495.06;;;17.81;42.91
67738;BME280;54534;43.612;1.572;2023-04-10T03:01:01;99486.22;;;17.80;42.94
67738;BME280;54534;43.612;1.572;2023-04-10T03:03:27;99489.75;;;17.81;42.68
67738;BME280;54534;43.612;1.572;2023-04-10T03:05:52;99477.25;;;17.81;42.68
67738;BME280;54534;43.612;1.572;2023-04-10T03:08:18;99482.59;;;17.81;42.54
67738;BME280;54534;43.612;1.572;2023-04-10T03:10:44;99480.91;;;17.80;42.62
67738;BME280;54534;43.612;1.572;2023-04-10T03:13:10;99482.59;;;17.81;42.62
67738;BME280;54534;43.612;1.572;2023-04-10T03:15:36;99478.25;;;17.80;43.07
67738;BME280;54534;43.612;1.572;2023-04-10T03:18:05;99475.59;;;17.80;42.94
67738;BME280;54534;43.612;1.572;2023-04-10T03:20:31;99487.19;;;17.79;42.61
67738;BME280;54534;43.612;1.572;2023-04-10T03:22:58;99486.22;;;17.80;42.54
67738;BME280;54534;43.612;1.572;2023-04-10T03:25:23;99487.19;;;17.79;42.55
67738;BME280;54534;43.612;1.572;2023-04-10T03:27:49;99496.88;;;17.80;42.76
67738;BME280;54534;43.612;1.572;2023-04-10T03:30:14;99490.69;;;17.79;42.98
67738;BME280;54534;43.612;1.572;2023-04-10T03:32:40;99487.19;;;17.79;42.75
67738;BME280;54534;43.612;1.572;2023-04-10T03:35:07;99488.97;;;17.78;42.98
67738;BME280;54534;43.612;1.572;2023-04-10T03:37:33;99501.34;;;17.79;42.83
67738;BME280;54534;43.612;1.572;2023-04-10T03:39:58;99500.47;;;17.79;43.03
67738;BME280;54534;43.612;1.572;2023-04-10T03:42:23;99490.81;;;17.78;42.69
67738;BME280;54534;43.612;1.572;2023-04-10T03:44:49;99497.94;;;17.77;42.93
67738;BME280;54534;43.612;1.572;2023-04-10T03:47:14;99498.78;;;17.78;42.76
67738;BME280;54534;43.612;1.572;2023-04-10T03:49:40;99501.44;;;17.78;42.59
67738;BME280;54534;43.612;1.572;2023-04-10T03:52:06;99496.13;;;17.78;42.81
67738;BME280;54534;43.612;1.572;2023-04-10T03:54:31;99503.25;;;17.77;42.94
67738;BME280;54534;43.612;1.572;2023-04-10T03:56:56;99505.06;;;17.77;42.76
67738;BME280;54534;43.612;1.572;2023-04-10T03:59:22;99511.25;;;17.77;42.91
67738;BME280;54534;43.612;1.572;2023-04-10T04:01:47;99507.72;;;17.77;43.00
67738;BME280;54534;43.612;1.572;2023-04-10T04:04:13;99507.72;;;17.77;42.63
67738;BME280;54534;43.612;1.572;2023-04-10T04:06:38;99501.53;;;17.76;42.68
67738;BME280;54534;43.612;1.572;2023-04-10T04:09:05;99510.38;;;17.77;42.74
67738;BME280;54534;43.612;1.572;2023-04-10T04:11:30;99501.53;;;17.76;42.87
67738;BME280;54534;43.612;1.572;2023-04-10T04:13:55;99505.19;;;17.75;43.13
67738;BME280;54534;43.612;1.572;2023-04-10T04:16:21;99509.53;;;17.76;43.01
67738;BME280;54534;43.612;1.572;2023-04-10T04:18:46;99514.00;;;17.76;42.57
67738;BME280;54534;43.612;1.572;2023-04-10T04:21:12;99505.19;;;17.75;42.71
67738;BME280;54534;43.612;1.572;2023-04-10T04:23:38;99512.31;;;17.75;42.84
67738;BME280;54534;43.612;1.572;2023-04-10T04:26:03;99517.50;;;17.76;42.97
67738;BME280;54534;43.612;1.572;2023-04-10T04:28:29;99521.16;;;17.75;42.93
67738;BME280;54534;43.612;1.572;2023-04-10T04:30:54;99517.63;;;17.75;42.93
67738;BME280;54534;43.612;1.572;2023-04-10T04:33:20;99516.66;;;17.76;42.68
67738;BME280;54534;43.612;1.572;2023-04-10T04:35:45;99508.78;;;17.74;42.92
67738;BME280;54534;43.612;1.572;2023-04-10T04:38:11;99514.13;;;17.74;42.66
67738;BME280;54534;43.612;1.572;2023-04-10T04:40:36;99509.66;;;17.75;42.79
67738;BME280;54534;43.612;1.572;2023-04-10T04:43:01;99513.25;;;17.74;43.07
67738;BME280;54534;43.612;1.572;2023-04-10T04:45:27;99528.34;;;17.73;42.80
67738;BME280;54534;43.612;1.572;2023-04-10T04:47:53;99525.59;;;17.75;42.78
67738;BME280;54534;43.612;1.572;2023-04-10T04:50:19;99524.75;;;17.74;42.64
67738;BME280;54534;43.612;1.572;2023-04-10T04:52:44;99527.53;;;17.73;42.81
67738;BME280;54534;43.612;1.572;2023-04-10T04:55:09;99530.06;;;17.74;42.64
67738;BME280;54534;43.612;1.572;2023-04-10T04:57:35;99523.91;;;17.74;42.83
67738;BME280;54534;43.612;1.572;2023-04-10T05:00:00;99519.56;;;17.73;42.83
67738;BME280;54534;43.612;1.572;2023-04-10T05:02:26;99539.00;;;17.73;42.85
67738;BME280;54534;43.612;1.572;2023-04-10T05:04:51;99539.97;;;17.72;42.63
67738;BME280;54534;43.612;1.572;2023-04-10T05:07:16;99543.50;;;17.73;42.57
67738;BME280;54534;43.612;1.572;2023-04-10T05:09:42;99545.28;;;17.72;42.67
67738;BME280;54534;43.612;1.572;2023-04-10T05:12:07;99543.50;;;17.73;42.73
67738;BME280;54534;43.612;1.572;2023-04-10T05:14:33;99546.16;;;17.73;42.65
67738;BME280;54534;43.612;1.572;2023-04-10T05:16:58;99544.44;;;17.72;43.03
67738;BME280;54534;43.612;1.572;2023-04-10T05:19:23;99549.75;;;17.72;42.79
67738;BME280;54534;43.612;1.572;2023-04-10T05:21:49;99544.44;;;17.72;42.65
67738;BME280;54534;43.612;1.572;2023-04-10T05:24:14;99547.09;;;17.72;42.72
67738;BME280;54534;43.612;1.572;2023-04-10T05:26:40;99548.91;;;17.71;42.91
67738;BME280;54534;43.612;1.572;2023-04-10T05:29:06;99549.88;;;17.70;42.98
67738;BME280;54534;43.612;1.572;2023-04-10T05:31:32;99551.56;;;17.71;42.64
67738;BME280;54534;43.612;1.572;2023-04-10T05:33:57;99559.53;;;17.71;43.00
67738;BME280;54534;43.612;1.572;2023-04-10T05:36:22;99557.72;;;17.72;42.63
67738;BME280;54534;43.612;1.572;2023-04-10T05:38:48;99557.84;;;17.70;42.88
67738;BME280;54534;43.612;1.572;2023-04-10T05:41:13;99564.84;;;17.71;43.02
67738;BME280;54534;43.612;1.572;2023-04-10T05:43:39;99561.34;;;17.71;42.60
67738;BME280;54534;43.612;1.572;2023-04-10T05:46:04;99558.69;;;17.71;42.57
67738;BME280;54534;43.612;1.572;2023-04-10T05:48:30;99561.47;;;17.69;42.73
67738;BME280;54534;43.612;1.572;2023-04-10T05:50:55;99566.66;;;17.71;43.03
67738;BME280;54534;43.612;1.572;2023-04-10T05:53:26;99560.50;;;17.70;42.66
67738;BME280;54534;43.612;1.572;2023-04-10T05:55:53;99564.97;;;17.70;42.78
67738;BME280;54534;43.612;1.572;2023-04-10T05:58:20;99569.44;;;17.69;42.84
67738;BME280;54534;43.612;1.572;2023-04-10T06:00:46;99564.13;;;17.69;42.80
67738;BME280;54534;43.612;1.572;2023-04-10T06:03:11;99570.28;;;17.70;43.04
67738;BME280;54534;43.612;1.572;2023-04-10T06:05:36;99573.91;;;17.68;42.66
67738;BME280;54534;43.612;1.572;2023-04-10T06:08:02;99569.56;;;17.67;42.87
67738;BME280;54534;43.612;1.572;2023-04-10T06:10:31;99578.28;;;17.70;42.81
67738;BME280;54534;43.612;1.572;2023-04-10T06:12:56;99584.53;;;17.68;42.87
67738;BME280;54534;43.612;1.572;2023-04-10T06:15:22;99596.97;;;17.68;42.77
67738;BME280;54534;43.612;1.572;2023-04-10T06:17:47;99595.19;;;17.68;42.65
67738;BME280;54534;43.612;1.572;2023-04-10T06:20:13;99597.97;;;17.67;42.84
67738;BME280;54534;43.612;1.572;2023-04-10T06:22:38;99598.81;;;17.67;43.07
67738;BME280;54534;43.612;1.572;2023-04-10T06:25:04;99604.97;;;17.68;42.99
67738;BME280;54534;43.612;1.572;2023-04-10T06:27:29;99599.63;;;17.68;42.68
67738;BME280;54534;43.612;1.572;2023-04-10T06:29:55;99597.97;;;17.67;42.80
67738;BME280;54534;43.612;1.572;2023-04-10T06:32:20;99615.59;;;17.68;42.63
67738;BME280;54534;43.612;1.572;2023-04-10T06:34:46;99612.19;;;17.66;43.06
67738;BME280;54534;43.612;1.572;2023-04-10T06:37:11;99614.78;;;17.67;43.06
67738;BME280;54534;43.612;1.572;2023-04-10T06:39:37;99610.41;;;17.66;43.01
67738;BME280;54534;43.612;1.572;2023-04-10T06:42:03;99619.22;;;17.67;42.97
67738;BME280;54534;43.612;1.572;2023-04-10T06:44:29;99633.38;;;17.67;43.01
67738;BME280;54534;43.612;1.572;2023-04-10T06:46:54;99621.88;;;17.67;42.66
67738;BME280;54534;43.612;1.572;2023-04-10T06:49:20;99623.69;;;17.66;42.68
67738;BME280;54534;43.612;1.572;2023-04-10T06:51:45;99628.16;;;17.66;42.72
67738;BME280;54534;43.612;1.572;2023-04-10T06:54:12;99626.34;;;17.66;42.78
67738;BME280;54534;43.612;1.572;2023-04-10T06:56:38;99632.63;;;17.65;42.67
67738;BME280;54534;43.612;1.572;2023-04-10T06:59:03;99633.47;;;17.66;43.13
67738;BME280;54534;43.612;1.572;2023-04-10T07:01:28;99637.94;;;17.65;42.68
67738;BME280;54534;43.612;1.572;2023-04-10T07:03:54;99636.13;;;17.66;43.04
67738;BME280;54534;43.612;1.572;2023-04-10T07:06:20;99639.66;;;17.66;42.58
67738;BME280;54534;43.612;1.572;2023-04-10T07:08:47;99634.31;;;17.66;42.91
67738;BME280;54534;43.612;1.572;2023-04-10T07:11:13;99627.28;;;17.65;42.69
67738;BME280;54534;43.612;1.572;2023-04-10T07:13:38;99629.00;;;17.66;42.85
67738;BME280;54534;43.612;1.572;2023-04-10T07:16:04;99630.81;;;17.66;42.63
67738;BME280;54534;43.612;1.572;2023-04-10T07:18:30;99622.97;;;17.64;42.82
67738;BME280;54534;43.612;1.572;2023-04-10T07:20:56;99625.63;;;17.64;42.74
67738;BME280;54534;43.612;1.572;2023-04-10T07:23:21;99630.94;;;17.64;42.92
67738;BME280;54534;43.612;1.572;2023-04-10T07:25:47;99637.94;;;17.65;42.83
67738;BME280;54534;43.612;1.572;2023-04-10T07:28:12;99647.75;;;17.65;42.99
67738;BME280;54534;43.612;1.572;2023-04-10T07:30:38;99661.13;;;17.63;42.70
67738;BME280;54534;43.612;1.572;2023-04-10T07:33:03;99663.69;;;17.65;42.71
67738;BME280;54534;43.612;1.572;2023-04-10T07:35:28;99674.34;;;17.65;42.64
67738;BME280;54534;43.612;1.572;2023-04-10T07:37:54;99673.47;;;17.64;42.83
67738;BME280;54534;43.612;1.572;2023-04-10T07:40:19;99684.13;;;17.64;42.70
67738;BME280;54534;43.612;1.572;2023-04-10T07:42:45;99678.78;;;17.64;42.57
67738;BME280;54534;43.612;1.572;2023-04-10T07:45:11;99691.13;;;17.65;43.02
67738;BME280;54534;43.612;1.572;2023-04-10T07:47:36;99696.44;;;17.65;42.88
67738;BME280;54534;43.612;1.572;2023-04-10T07:50:03;99689.44;;;17.64;42.67
67738;BME280;54534;43.612;1.572;2023-04-10T07:52:28;99689.53;;;17.63;43.00
67738;BME280;54534;43.612;1.572;2023-04-10T07:54:54;99686.78;;;17.64;42.87
67738;BME280;54534;43.612;1.572;2023-04-10T07:57:19;99688.56;;;17.64;42.76
67738;BME280;54534;43.612;1.572;2023-04-10T07:59:44;99694.75;;;17.64;42.82
67738;BME280;54534;43.612;1.572;2023-04-10T08:02:10;99696.56;;;17.64;42.91
67738;BME280;54534;43.612;1.572;2023-04-10T08:04:35;99700.16;;;17.63;42.68
67738;BME280;54534;43.612;1.572;2023-04-10T08:07:01;99702.81;;;17.63;42.98
67738;BME280;54534;43.612;1.572;2023-04-10T08:09:26;99708.13;;;17.63;42.56
67738;BME280;54534;43.612;1.572;2023-04-10T08:11:52;99698.34;;;17.63;42.61
67738;BME280;54534;43.612;1.572;2023-04-10T08:14:17;99702.81;;;17.63;42.93
67738;BME280;54534;43.612;1.572;2023-04-10T08:16:43;99716.03;;;17.64;42.69
67738;BME280;54534;43.612;1.572;2023-04-10T08:19:08;99718.78;;;17.63;42.73
67738;BME280;54534;43.612;1.572;2023-04-10T08:21:33;99732.94;;;17.63;42.76
67738;BME280;54534;43.612;1.572;2023-04-10T08:24:01;99740.91;;;17.63;42.71
67738;BME280;54534;43.612;1.572;2023-04-10T08:26:27;99740.91;;;17.63;43.06
67738;BME280;54534;43.612;1.572;2023-04-10T08:28:56;99754.19;;;17.63;42.91
67738;BME280;54534;43.612;1.572;2023-04-10T08:31:23;99751.53;;;17.63;42.83
67738;BME280;54534;43.612;1.572;2023-04-10T08:33:49;99756.84;;;17.63;42.63
67738;BME280;54534;43.612;1.572;2023-04-10T08:36:15;99753.47;;;17.61;42.84
67738;BME280;54534;43.612;1.572;2023-04-10T08:38:41;99750.69;;;17.63;42.90
67738;BME280;54534;43.612;1.572;2023-04-10T08:41:11;99749.84;;;17.62;42.95
67738;BME280;54534;43.612;1.572;2023-04-10T08:43:37;99745.56;;;17.60;42.66
67738;BME280;54534;43.612;1.572;2023-04-10T08:46:02;99742.81;;;17.61;42.57
67738;BME280;54534;43.612;1.572;2023-04-10T08:48:38;99749.84;;;17.62;42.89
67738;BME280;54534;43.612;1.572;2023-04-10T08:51:13;99749.94;;;17.61;42.62
67738;BME280;54534;43.612;1.572;2023-04-10T08:53:39;99759.72;;;17.60;42.81
67738;BME280;54534;43.612;1.572;2023-04-10T08:56:06;99760.56;;;17.61;42.53
67738;BME280;54534;43.612;1.572;2023-04-10T08:58:32;99749.94;;;17.61;43.00
67738;BME280;54534;43.612;1.572;2023-04-10T09:00:59;99756.97;;;17.62;43.02
67738;BME280;54534;43.612;1.572;2023-04-10T09:03:25;99748.13;;;17.61;42.60
67738;BME280;54534;43.612;1.572;2023-04-10T09:05:51;99739.31;;;17.61;42.89
67738;BME280;54534;43.612;1.572;2023-04-10T09:08:16;99746.34;;;17.62;42.99
67738;BME280;54534;43.612;1.572;2023-04-10T09:10:42;99741.97;;;17.61;42.79
67738;BME280;54534;43.612;1.572;2023-04-10T09:13:07;99744.53;;;17.62;42.95
67738;BME280;54534;43.612;1.572;2023-04-10T09:15:55;99733.03;;;17.62;42.94
67738;BME280;54534;43.612;1.572;2023-04-10T09:21:09;99726.88;;;17.61;42.95
67738;BME280;54534;43.612;1.572;2023-04-10T09:23:35;99724.28;;;17.60;42.86
67738;BME280;54534;43.612;1.572;2023-04-10T09:26:04;99726.88;;;17.61;42.66
67738;BME280;54534;43.612;1.572;2023-04-10T09:28:29;99734.84;;;17.61;42.79
67738;BME280;54534;43.612;1.572;2023-04-10T09:30:55;99734.84;;;17.61;42.56
67738;BME280;54534;43.612;1.572;2023-04-10T09:33:25;99729.53;;;17.61;42.96
67738;BME280;54534;43.612;1.572;2023-04-10T09:35:58;99732.19;;;17.61;42.82
67738;BME280;54534;43.612;1.572;2023-04-10T09:38:28;99741.97;;;17.61;42.63
67738;BME280;54534;43.612;1.572;2023-04-10T09:41:05;99754.31;;;17.62;42.61
67738;BME280;54534;43.612;1.572;2023-04-10T09:43:31;99753.47;;;17.61;42.87
67738;BME280;54534;43.612;1.572;2023-04-10T09:45:56;99759.63;;;17.62;43.06
67738;BME280;54534;43.612;1.572;2023-04-10T09:48:23;99763.22;;;17.61;42.73
67738;BME280;54534;43.612;1.572;2023-04-10T09:50:49;99755.16;;;17.62;43.07
67738;BME280;54534;43.612;1.572;2023-04-10T09:53:18;99753.34;;;17.63;42.65
67738;BME280;54534;43.612;1.572;2023-04-10T09:55:45;99760.50;;;17.62;42.76
67738;BME280;54534;43.612;1.572;2023-04-10T09:58:11;99764.09;;;17.61;42.59
67738;BME280;54534;43.612;1.572;2023-04-10T10:03:07;99765.81;;;17.62;42.94
67738;BME280;54534;43.612;1.572;2023-04-10T10:05:42;99760.50;;;17.62;42.73
67738;BME280;54534;43.612;1.572;2023-04-10T10:08:12;99752.50;;;17.62;42.73
67738;BME280;54534;43.612;1.572;2023-04-10T10:10:50;99739.22;;;17.62;42.86
67738;BME280;54534;43.612;1.572;2023-04-10T10:13:33;99743.69;;;17.62;42.79
67738;BME280;54534;43.612;1.572;2023-04-10T10:16:07;99734.72;;;17.63;42.62
67738;BME280;54534;43.612;1.572;2023-04-10T10:21:19;99743.69;;;17.62;42.88
67738;BME280;54534;43.612;1.572;2023-04-10T10:23:47;99738.34;;;17.62;42.91
67738;BME280;54534;43.612;1.572;2023-04-10T10:26:18;99749.84;;;17.62;42.70
67738;BME280;54534;43.612;1.572;2023-04-10T10:28:45;99749.00;;;17.62;42.84
67738;BME280;54534;43.612;1.572;2023-04-10T10:31:11;99743.56;;;17.63;42.81
67738;BME280;54534;43.612;1.572;2023-04-10T10:33:37;99740.91;;;17.63;42.78
67738;BME280;54534;43.612;1.572;2023-04-10T10:36:03;99733.91;;;17.62;42.66
67738;BME280;54534;43.612;1.572;2023-04-10T10:38:30;99737.38;;;17.63;43.01
67738;BME280;54534;43.612;1.572;2023-04-10T10:41:08;99742.69;;;17.63;42.94
67738;BME280;54534;43.612;1.572;2023-04-10T10:46:10;99749.84;;;17.62;42.80
67738;BME280;54534;43.612;1.572;2023-04-10T10:48:36;99744.53;;;17.62;42.99
67738;BME280;54534;43.612;1.572;2023-04-10T10:51:02;99751.75;;;17.60;42.67
67738;BME280;54534;43.612;1.572;2023-04-10T10:53:39;99749.84;;;17.62;42.80
67738;BME280;54534;43.612;1.572;2023-04-10T10:58:50;99761.31;;;17.63;42.72
67738;BME280;54534;43.612;1.572;2023-04-10T11:01:16;99749.84;;;17.62;42.86
67738;BME280;54534;43.612;1.572;2023-04-10T11:03:42;99741.88;;;17.62;42.95
67738;BME280;54534;43.612;1.572;2023-04-10T11:06:13;99733.91;;;17.62;42.62
67738;BME280;54534;43.612;1.572;2023-04-10T11:08:43;99728.59;;;17.62;43.09
67738;BME280;54534;43.612;1.572;2023-04-10T11:11:23;99716.97;;;17.63;42.55
67738;BME280;54534;43.612;1.572;2023-04-10T11:16:13;99706.44;;;17.62;42.86
67738;BME280;54534;43.612;1.572;2023-04-10T11:21:18;99702.72;;;17.64;42.79
67738;BME280;54534;43.612;1.572;2023-04-10T11:24:05;99707.19;;;17.64;42.62
67738;BME280;54534;43.612;1.572;2023-04-10T11:31:43;99718.78;;;17.63;42.66
67738;BME280;54534;43.612;1.572;2023-04-10T11:34:09;99719.63;;;17.63;43.13
67738;BME280;54534;43.612;1.572;2023-04-10T11:36:37;99709.84;;;17.64;43.00
67738;BME280;54534;43.612;1.572;2023-04-10T11:39:08;99704.41;;;17.65;42.74
67738;BME280;54534;43.612;1.572;2023-04-10T11:41:36;99705.38;;;17.64;42.72
67738;BME280;54534;43.612;1.572;2023-04-10T11:44:08;99703.59;;;17.65;42.53
67738;BME280;54534;43.612;1.572;2023-04-10T11:46:38;99705.38;;;17.64;42.97
67738;BME280;54534;43.612;1.572;2023-04-10T11:49:06;99697.41;;;17.64;42.87
67738;BME280;54534;43.612;1.572;2023-04-10T11:51:34;99696.44;;;17.65;43.00
67738;BME280;54534;43.612;1.572;2023-04-10T11:54:10;99700.94;;;17.65;42.62
67738;BME280;54534;43.612;1.572;2023-04-10T11:56:37;99685.78;;;17.65;42.74
67738;BME280;54534;43.612;1.572;2023-04-10T11:59:04;99687.50;;;17.66;42.82
67738;BME280;54534;43.612;1.572;2023-04-10T12:01:35;99690.28;;;17.65;42.56
67738;BME280;54534;43.612;1.572;2023-04-10T12:04:02;99693.69;;;17.67;42.76
67738;BME280;54534;43.612;1.572;2023-04-10T12:06:28;99691.13;;;17.65;42.62
67738;BME280;54534;43.612;1.572;2023-04-10T12:08:53;99684.00;;;17.66;42.72
67738;BME280;54534;43.612;1.572;2023-04-10T12:11:24;99691.88;;;17.67;42.71
67738;BME280;54534;43.612;1.572;2023-04-10T12:13:54;99694.53;;;17.67;42.92
67738;BME280;54534;43.612;1.572;2023-04-10T12:16:19;99699.22;;;17.64;43.09
67738;BME280;54534;43.612;1.572;2023-04-10T12:18:46;99704.41;;;17.65;43.11
67738;BME280;54534;43.612;1.572;2023-04-10T12:21:12;99707.06;;;17.65;42.76
67738;BME280;54534;43.612;1.572;2023-04-10T12:23:38;99700.81;;;17.66;42.63
67738;BME280;54534;43.612;1.572;2023-04-10T12:26:14;99702.53;;;17.67;43.00
67738;BME280;54534;43.612;1.572;2023-04-10T12:28:42;99714.97;;;17.67;42.82
67738;BME280;54534;43.612;1.572;2023-04-10T12:31:13;99714.09;;;17.66;43.13
67738;BME280;54534;43.612;1.572;2023-04-10T12:33:38;99712.31;;;17.67;42.89
67738;BME280;54534;43.612;1.572;2023-04-10T12:36:04;99710.50;;;17.67;42.91
67738;BME280;54534;43.612;1.572;2023-04-10T12:38:40;99713.16;;;17.67;42.77
67738;BME280;54534;43.612;1.572;2023-04-10T12:41:06;99710.50;;;17.67;42.87
67738;BME280;54534;43.612;1.572;2023-04-10T12:43:34;99699.88;;;17.67;42.87
67738;BME280;54534;43.612;1.572;2023-04-10T12:46:00;99691.03;;;17.67;42.65
67738;BME280;54534;43.612;1.572;2023-04-10T12:48:26;99690.06;;;17.68;42.71
67738;BME280;54534;43.612;1.572;2023-04-10T12:50:52;99682.94;;;17.68;42.82
67738;BME280;54534;43.612;1.572;2023-04-10T12:53:17;99690.06;;;17.68;43.03
67738;BME280;54534;43.612;1.572;2023-04-10T12:56:13;99697.09;;;17.69;42.65
67738;BME280;54534;43.612;1.572;2023-04-10T12:58:39;99692.63;;;17.70;42.68
67738;BME280;54534;43.612;1.572;2023-04-10T13:01:07;99692.63;;;17.70;42.71
67738;BME280;54534;43.612;1.572;2023-04-10T13:03:38;99693.56;;;17.68;43.06
67738;BME280;54534;43.612;1.572;2023-04-10T13:06:07;99695.38;;;17.68;43.13
67738;BME280;54534;43.612;1.572;2023-04-10T13:08:35;99693.56;;;17.68;42.82
67738;BME280;54534;43.612;1.572;2023-04-10T13:11:01;99708.59;;;17.70;43.09
67738;BME280;54534;43.612;1.572;2023-04-10T13:13:29;99705.91;;;17.70;42.61
67738;BME280;54534;43.612;1.572;2023-04-10T13:15:57;99700.59;;;17.70;42.73
67738;BME280;54534;43.612;1.572;2023-04-10T13:18:22;99692.50;;;17.71;42.90
67738;BME280;54534;43.612;1.572;2023-04-10T13:20:48;99691.66;;;17.71;42.71
67738;BME280;54534;43.612;1.572;2023-04-10T13:23:13;99697.94;;;17.70;42.76
67738;BME280;54534;43.612;1.572;2023-04-10T13:25:39;99697.81;;;17.71;43.16
67738;BME280;54534;43.612;1.572;2023-04-10T13:28:06;99700.50;;;17.71;42.86
67738;BME280;54534;43.612;1.572;2023-04-10T13:30:36;99705.81;;;17.71;42.97
67738;BME280;54534;43.612;1.572;2023-04-10T13:33:02;99697.81;;;17.71;43.06